Huvudsida
METAR-TAF:

METAR-TAF

Flygplatser :

Wainwright, Alaska, USA

latitud: 64-50N, longitud: 147-37W, höjd: 137 m

Aktuellt väderrapport

Denna rapport gjordes för 52 minuter sedan, klockan 20:58 UTC
Stilla vind
Temperatur -35°C
Fuktighet 66%
Tryck 1004 hPa
Sikt: 16.1 km
Klar himmel

METAR: PAFB 192058Z AUTO 00000KT 10SM CLR M35/M39 A2964 RMK AO2 SLP062 T13541387 55001 $

Tid: 12:50 (21:50 UTC)


TAF: saknas

Aktuella väderrapporter och prognoser från 4000 flygplatser (METAR- och TAF-rapporter).

De tillgängliga stationerna syns som gula och röda prickar på kartan.

För musen över prickarna för att se namnen på stationerna.

Klicka sedan för att få väderrapporter och prognoser.

För att ändra kartan: Klicka på de gröna knapparna med ett svart kors på för att zooma in; den gröna knappen med ett streck på för att zooma ut; eller på de gröna pilarna för angränsande kartor.


METAR-TAF: